createdAt,value
2022-10-20T00:02:29.300Z,101114.00
2022-10-20T00:05:02.306Z,101113.00
2022-10-20T00:07:35.243Z,101113.00
2022-10-20T00:10:08.379Z,101123.00
2022-10-20T00:12:45.274Z,101120.00
2022-10-20T00:15:18.685Z,101119.00
2022-10-20T00:17:51.697Z,101118.00
2022-10-20T00:20:24.546Z,101115.00
2022-10-20T00:22:57.475Z,101116.00
2022-10-20T00:25:30.412Z,101107.00
2022-10-20T00:28:03.458Z,101112.00
2022-10-20T00:30:39.946Z,101107.00
2022-10-20T00:33:12.994Z,101108.00
2022-10-20T00:35:45.837Z,101096.00
2022-10-20T00:40:51.283Z,101110.00
2022-10-20T00:43:24.655Z,101106.00
2022-10-20T00:45:59.689Z,101104.00
2022-10-20T00:48:34.254Z,101108.00
2022-10-20T00:51:07.361Z,101104.00
2022-10-20T00:53:41.151Z,101109.00
2022-10-20T00:56:18.300Z,101114.00
2022-10-20T00:58:52.098Z,101108.00
2022-10-20T01:01:24.967Z,101093.00
2022-10-20T01:03:58.323Z,101085.00
2022-10-20T01:06:31.077Z,101085.00
2022-10-20T01:09:04.315Z,101083.00
2022-10-20T01:11:45.125Z,101083.00
2022-10-20T01:14:38.262Z,101091.00
2022-10-20T01:17:41.712Z,101078.00
2022-10-20T01:20:42.411Z,101085.00
2022-10-20T01:23:26.317Z,101086.00
2022-10-20T01:26:34.487Z,101072.00
2022-10-20T01:29:15.273Z,101070.00
2022-10-20T01:31:56.434Z,101072.00
2022-10-20T01:34:37.265Z,101061.00
2022-10-20T01:37:48.407Z,101068.00
2022-10-20T01:40:36.096Z,101058.00
2022-10-20T01:43:14.853Z,101064.00
2022-10-20T01:45:49.487Z,101045.00
2022-10-20T01:48:24.195Z,101053.00
2022-10-20T01:50:59.715Z,101045.00
2022-10-20T01:53:32.665Z,101055.00
2022-10-20T01:56:10.060Z,101047.00
2022-10-20T01:59:01.447Z,101046.00
2022-10-20T02:01:48.078Z,101046.00
2022-10-20T02:04:25.033Z,101045.00
2022-10-20T02:07:05.435Z,101044.00
2022-10-20T02:09:46.491Z,101036.00
2022-10-20T02:12:36.018Z,101034.00
2022-10-20T02:15:14.702Z,101035.00
2022-10-20T02:17:49.386Z,101034.00
2022-10-20T02:20:22.846Z,101034.00
2022-10-20T02:22:56.215Z,101035.00
2022-10-20T02:25:30.101Z,101032.00
2022-10-20T02:28:20.405Z,101031.00
2022-10-20T02:30:56.099Z,101023.00
2022-10-20T02:33:30.223Z,101017.00
2022-10-20T02:36:06.582Z,101011.00
2022-10-20T02:38:39.920Z,101008.00
2022-10-20T02:41:16.622Z,101010.00
2022-10-20T02:43:49.802Z,100993.00
2022-10-20T02:46:23.151Z,100997.00
2022-10-20T02:48:56.414Z,100993.00
2022-10-20T02:51:35.953Z,100999.00
2022-10-20T02:54:08.387Z,100992.00
2022-10-20T02:56:41.324Z,100992.00
2022-10-20T02:59:20.296Z,100984.00
2022-10-20T03:01:56.338Z,100988.00
2022-10-20T03:04:29.411Z,100984.00
2022-10-20T03:07:02.296Z,100979.00
2022-10-20T03:09:37.863Z,100975.00
2022-10-20T03:12:19.781Z,100975.00
2022-10-20T03:15:01.168Z,100973.00
2022-10-20T03:17:34.447Z,100969.00
2022-10-20T03:20:10.183Z,100969.00
2022-10-20T03:22:51.597Z,100970.00
2022-10-20T03:25:24.513Z,100968.00
2022-10-20T03:27:58.597Z,100965.00
2022-10-20T03:30:32.792Z,100985.00
2022-10-20T03:33:10.725Z,100981.00
2022-10-20T03:35:45.448Z,100984.00
2022-10-20T03:38:18.193Z,100984.00
2022-10-20T03:40:54.139Z,100985.00
2022-10-20T03:43:27.011Z,100986.00
2022-10-20T03:46:18.174Z,100974.00
2022-10-20T03:48:56.099Z,100980.00
2022-10-20T03:51:29.076Z,100971.00
2022-10-20T03:54:02.026Z,100973.00
2022-10-20T03:56:35.432Z,100980.00
2022-10-20T03:59:08.505Z,100976.00
2022-10-20T04:01:41.721Z,100969.00
2022-10-20T04:04:14.673Z,100974.00
2022-10-20T04:06:47.646Z,100977.00
2022-10-20T04:09:20.613Z,100971.00
2022-10-20T04:11:54.897Z,100971.00
2022-10-20T04:14:27.856Z,100975.00
2022-10-20T04:17:01.034Z,100976.00
2022-10-20T04:19:34.327Z,100984.00
2022-10-20T04:22:07.461Z,100981.00
2022-10-20T04:24:40.386Z,100986.00
2022-10-20T04:27:13.754Z,100982.00
2022-10-20T04:29:46.678Z,100975.00
2022-10-20T04:32:19.672Z,100990.00
2022-10-20T04:34:52.385Z,100984.00
2022-10-20T04:37:25.527Z,100988.00
2022-10-20T04:40:05.635Z,100984.00
2022-10-20T04:42:38.534Z,100992.00
2022-10-20T04:45:13.346Z,100984.00
2022-10-20T04:47:46.729Z,100980.00
2022-10-20T04:50:19.792Z,100978.00
2022-10-20T04:52:53.340Z,100984.00
2022-10-20T04:55:26.589Z,100996.00
2022-10-20T04:57:59.544Z,100990.00
2022-10-20T05:00:32.914Z,100988.00
2022-10-20T05:03:05.813Z,101000.00
2022-10-20T05:05:38.691Z,100985.00
2022-10-20T05:08:11.630Z,100992.00
2022-10-20T05:10:45.338Z,100979.00
2022-10-20T05:13:19.574Z,100982.00
2022-10-20T05:15:54.498Z,100984.00
2022-10-20T05:18:27.346Z,100980.00
2022-10-20T05:21:15.026Z,100984.00
2022-10-20T05:23:35.525Z,100985.00
2022-10-20T05:26:17.023Z,100975.00
2022-10-20T05:28:51.537Z,100979.00
2022-10-20T05:31:25.698Z,100980.00
2022-10-20T05:34:00.778Z,100973.00
2022-10-20T05:36:33.742Z,100965.00
2022-10-20T05:39:07.028Z,100970.00
2022-10-20T05:41:40.322Z,100973.00
2022-10-20T05:44:14.878Z,100978.00
2022-10-20T05:46:47.687Z,100970.00
2022-10-20T05:49:21.288Z,100973.00
2022-10-20T05:51:54.113Z,100962.00
2022-10-20T05:54:27.030Z,100981.00
2022-10-20T05:56:59.895Z,100977.00
2022-10-20T05:59:33.994Z,100974.00
2022-10-20T06:02:07.154Z,100978.00
2022-10-20T06:04:39.945Z,100967.00
2022-10-20T06:07:15.864Z,100961.00
2022-10-20T06:09:48.885Z,100957.00
2022-10-20T06:12:21.845Z,100960.00
2022-10-20T06:14:54.784Z,100957.00
2022-10-20T06:17:27.652Z,100947.00
2022-10-20T06:20:00.554Z,100949.00
2022-10-20T06:22:33.673Z,100955.00
2022-10-20T06:25:10.249Z,100949.00
2022-10-20T06:27:44.211Z,100952.00
2022-10-20T06:30:17.509Z,100953.00
2022-10-20T06:32:50.477Z,100949.00
2022-10-20T06:35:23.416Z,100960.00
2022-10-20T06:37:56.459Z,100949.00
2022-10-20T06:40:33.594Z,100953.00
2022-10-20T06:43:06.819Z,100968.00
2022-10-20T06:45:40.254Z,100963.00
2022-10-20T06:48:13.237Z,100972.00
2022-10-20T06:50:46.516Z,100971.00
2022-10-20T06:53:19.490Z,100969.00
2022-10-20T06:56:00.749Z,100971.00
2022-10-20T06:58:33.785Z,100963.00
2022-10-20T07:01:10.968Z,100968.00
2022-10-20T07:03:43.418Z,100970.00
2022-10-20T07:06:18.214Z,100973.00
2022-10-20T07:08:52.567Z,100982.00
2022-10-20T07:11:29.598Z,100994.00
2022-10-20T07:14:05.864Z,100987.00
2022-10-20T07:16:39.313Z,100978.00
2022-10-20T07:19:12.398Z,100995.00
2022-10-20T07:21:45.889Z,100993.00
2022-10-20T07:24:18.964Z,100990.00
2022-10-20T07:26:51.820Z,100995.00
2022-10-20T07:29:26.594Z,100991.00
2022-10-20T07:32:01.342Z,101001.00
2022-10-20T07:34:32.653Z,100992.00
2022-10-20T07:37:05.613Z,100983.00
2022-10-20T07:39:38.743Z,100987.00
2022-10-20T07:42:11.590Z,100987.00
2022-10-20T07:44:44.393Z,100996.00
2022-10-20T07:47:17.254Z,100988.00
2022-10-20T07:49:50.166Z,100987.00
2022-10-20T07:52:23.325Z,100997.00
2022-10-20T07:55:06.352Z,100996.00
2022-10-20T07:57:30.387Z,100997.00
2022-10-20T08:00:03.215Z,100996.00
2022-10-20T08:02:36.363Z,101003.00
2022-10-20T08:05:09.693Z,100999.00
2022-10-20T08:07:42.596Z,100998.00
2022-10-20T08:10:15.569Z,100994.00
2022-10-20T08:12:48.577Z,100995.00
2022-10-20T08:15:21.782Z,100992.00
2022-10-20T08:17:54.778Z,100995.00
2022-10-20T08:20:33.696Z,100991.00
2022-10-20T08:23:09.341Z,100990.00
2022-10-20T08:25:42.110Z,100989.00
2022-10-20T08:28:15.042Z,100997.00
2022-10-20T08:30:48.199Z,100992.00
2022-10-20T08:33:21.380Z,100992.00
2022-10-20T08:35:54.600Z,100995.00
2022-10-20T08:38:27.445Z,100987.00
2022-10-20T08:41:01.806Z,100985.00
2022-10-20T08:43:36.546Z,100985.00
2022-10-20T08:46:10.097Z,100977.00
2022-10-20T08:48:43.697Z,100962.00
2022-10-20T08:51:30.934Z,100958.00
2022-10-20T08:54:05.493Z,100961.00
2022-10-20T08:56:39.153Z,100962.00
2022-10-20T08:59:30.413Z,100965.00
2022-10-20T09:02:03.639Z,100949.00
2022-10-20T09:04:44.569Z,100954.00
2022-10-20T09:07:28.256Z,100949.00
2022-10-20T09:10:03.265Z,100948.00
2022-10-20T09:12:37.598Z,100952.00
2022-10-20T09:15:12.068Z,100954.00
2022-10-20T09:17:57.290Z,100949.00
2022-10-20T09:20:41.130Z,100951.00
2022-10-20T09:23:39.846Z,100945.00
2022-10-20T09:25:56.492Z,100950.00
2022-10-20T09:28:38.371Z,100952.00
2022-10-20T09:31:04.921Z,100950.00
2022-10-20T09:33:41.510Z,100945.00
2022-10-20T09:36:19.238Z,100940.00
2022-10-20T09:38:56.037Z,100940.00
2022-10-20T09:41:37.479Z,100955.00
2022-10-20T09:44:12.456Z,100944.00
2022-10-20T09:46:52.723Z,100947.00
2022-10-20T09:49:40.206Z,100939.00
2022-10-20T09:52:25.643Z,100947.00
2022-10-20T09:55:00.252Z,100946.00
2022-10-20T09:57:34.133Z,100938.00
2022-10-20T10:00:25.321Z,100935.00
2022-10-20T10:02:41.943Z,100933.00
2022-10-20T10:05:25.049Z,100925.00
2022-10-20T10:08:04.582Z,100932.00
2022-10-20T10:10:37.495Z,100929.00
2022-10-20T10:13:11.736Z,100925.00
2022-10-20T10:15:45.478Z,100916.00
2022-10-20T10:18:25.531Z,100908.00
2022-10-20T10:21:13.041Z,100917.00
2022-10-20T10:24:02.838Z,100921.00
2022-10-20T10:26:50.673Z,100910.00
2022-10-20T10:29:31.241Z,100903.00
2022-10-20T10:32:23.967Z,100900.00
2022-10-20T10:35:08.886Z,100908.00
2022-10-20T10:37:43.569Z,100908.00
2022-10-20T10:40:21.924Z,100911.00
2022-10-20T10:42:59.485Z,100911.00
2022-10-20T10:45:34.466Z,100908.00
2022-10-20T10:48:12.832Z,100918.00
2022-10-20T10:50:57.959Z,100925.00
2022-10-20T10:53:47.717Z,100918.00
2022-10-20T10:56:38.088Z,100917.00
2022-10-20T10:59:27.891Z,100928.00
2022-10-20T11:02:19.005Z,100912.00
2022-10-20T11:05:00.044Z,100909.00
2022-10-20T11:07:41.050Z,100911.00
2022-10-20T11:10:15.931Z,100908.00
2022-10-20T11:13:10.187Z,100915.00
2022-10-20T11:16:16.450Z,100920.00
2022-10-20T11:19:06.345Z,100922.00
2022-10-20T11:22:08.427Z,100920.00
2022-10-20T11:24:45.483Z,100923.00
2022-10-20T11:27:32.295Z,100920.00
2022-10-20T11:30:11.295Z,100910.00
2022-10-20T11:32:58.506Z,100913.00
2022-10-20T11:35:39.137Z,100915.00
2022-10-20T11:38:17.047Z,100913.00
2022-10-20T11:40:57.510Z,100925.00
2022-10-20T11:43:50.435Z,100912.00
2022-10-20T11:46:28.594Z,100907.00
2022-10-20T11:49:03.340Z,100901.00
2022-10-20T11:51:37.341Z,100906.00
2022-10-20T11:54:37.963Z,100912.00
2022-10-20T11:57:42.700Z,100909.00
2022-10-20T12:00:29.683Z,100903.00
2022-10-20T12:03:19.279Z,100912.00
2022-10-20T12:06:12.678Z,100908.00
2022-10-20T12:08:52.748Z,100912.00
2022-10-20T12:11:39.749Z,100903.00
2022-10-20T12:14:23.260Z,100904.00
2022-10-20T12:17:01.216Z,100912.00
2022-10-20T12:19:38.727Z,100904.00
2022-10-20T12:22:19.715Z,100904.00
2022-10-20T12:24:57.327Z,100909.00
2022-10-20T12:27:30.645Z,100915.00
2022-10-20T12:30:08.694Z,100914.00
2022-10-20T12:32:44.114Z,100893.00
2022-10-20T12:35:19.242Z,100904.00
2022-10-20T12:38:06.167Z,100905.00
2022-10-20T12:40:46.904Z,100897.00
2022-10-20T12:43:30.397Z,100897.00
2022-10-20T12:46:05.510Z,100900.00
2022-10-20T12:48:40.146Z,100891.00
2022-10-20T12:51:15.049Z,100887.00
2022-10-20T12:53:49.364Z,100878.00
2022-10-20T12:56:24.191Z,100873.00
2022-10-20T12:59:26.531Z,100871.00
2022-10-20T13:02:17.094Z,100866.00
2022-10-20T13:05:04.596Z,100863.00
2022-10-20T13:07:58.736Z,100863.00
2022-10-20T13:10:38.962Z,100856.00
2022-10-20T13:13:14.385Z,100860.00
2022-10-20T13:15:52.272Z,100848.00
2022-10-20T13:18:27.105Z,100832.00
2022-10-20T13:21:04.950Z,100848.00
2022-10-20T13:23:42.481Z,100843.00
2022-10-20T13:26:25.895Z,100844.00
2022-10-20T13:29:00.395Z,100835.00
2022-10-20T13:31:35.400Z,100834.00
2022-10-20T13:34:34.696Z,100830.00
2022-10-20T13:37:22.527Z,100825.00
2022-10-20T13:39:57.750Z,100821.00
2022-10-20T13:42:35.961Z,100828.00
2022-10-20T13:45:26.417Z,100819.00
2022-10-20T13:48:04.134Z,100824.00
2022-10-20T13:50:38.850Z,100819.00
2022-10-20T13:53:24.197Z,100824.00
2022-10-20T13:56:04.737Z,100828.00
2022-10-20T13:58:38.510Z,100828.00
2022-10-20T14:01:22.921Z,100827.00
2022-10-20T14:03:56.770Z,100832.00
2022-10-20T14:06:40.614Z,100829.00
2022-10-20T14:09:21.145Z,100845.00
2022-10-20T14:11:55.946Z,100830.00
2022-10-20T14:14:30.637Z,100832.00
2022-10-20T14:17:11.588Z,100833.00
2022-10-20T14:19:46.111Z,100837.00
2022-10-20T14:22:20.825Z,100844.00
2022-10-20T14:24:55.297Z,100833.00
2022-10-20T14:27:32.190Z,100826.00
2022-10-20T14:30:06.781Z,100827.00
2022-10-20T14:32:41.931Z,100823.00
2022-10-20T14:35:31.277Z,100834.00
2022-10-20T14:38:21.568Z,100836.00
2022-10-20T14:41:02.284Z,100845.00
2022-10-20T14:43:40.985Z,100844.00
2022-10-20T14:46:15.078Z,100839.00
2022-10-20T14:48:49.949Z,100845.00
2022-10-20T14:51:46.981Z,100845.00
2022-10-20T14:54:25.471Z,100838.00
2022-10-20T14:57:03.599Z,100838.00
2022-10-20T14:59:39.450Z,100844.00
2022-10-20T15:02:18.090Z,100851.00
2022-10-20T15:04:53.829Z,100849.00
2022-10-20T15:07:34.719Z,100863.00
2022-10-20T15:10:16.149Z,100851.00
2022-10-20T15:12:54.893Z,100860.00
2022-10-20T15:15:30.030Z,100854.00
2022-10-20T15:18:16.889Z,100851.00
2022-10-20T15:20:50.858Z,100867.00
2022-10-20T15:23:25.437Z,100853.00
2022-10-20T15:26:00.851Z,100851.00
2022-10-20T15:28:44.578Z,100849.00
2022-10-20T15:31:31.011Z,100851.00
2022-10-20T15:34:03.869Z,100862.00
2022-10-20T15:36:41.908Z,100864.00
2022-10-20T15:39:12.333Z,100858.00
2022-10-20T15:41:47.043Z,100867.00
2022-10-20T15:44:26.295Z,100853.00
2022-10-20T15:47:03.457Z,100850.00
2022-10-20T15:49:36.455Z,100852.00
2022-10-20T15:52:09.378Z,100856.00
2022-10-20T15:54:42.408Z,100853.00
2022-10-20T15:57:16.852Z,100844.00
2022-10-20T15:59:49.757Z,100845.00
2022-10-20T16:02:23.002Z,100850.00
2022-10-20T16:04:55.902Z,100852.00
2022-10-20T16:07:29.001Z,100844.00
2022-10-20T16:10:02.051Z,100838.00
2022-10-20T16:12:35.125Z,100833.00
2022-10-20T16:15:09.404Z,100845.00
2022-10-20T16:17:42.528Z,100830.00
2022-10-20T16:20:16.449Z,100837.00
2022-10-20T16:22:50.069Z,100844.00
2022-10-20T16:25:23.443Z,100854.00
2022-10-20T16:27:56.377Z,100844.00
2022-10-20T16:30:29.403Z,100829.00
2022-10-20T16:33:02.273Z,100850.00
2022-10-20T16:35:35.177Z,100851.00
2022-10-20T16:38:08.118Z,100851.00
2022-10-20T16:40:41.238Z,100857.00
2022-10-20T16:43:14.141Z,100870.00
2022-10-20T16:45:47.068Z,100872.00
2022-10-20T16:48:20.071Z,100867.00
2022-10-20T16:50:53.086Z,100882.00
2022-10-20T16:53:25.974Z,100882.00
2022-10-20T16:55:59.827Z,100880.00
2022-10-20T16:58:33.096Z,100889.00
2022-10-20T17:01:11.399Z,100884.00
2022-10-20T17:03:46.046Z,100892.00
2022-10-20T17:06:19.988Z,100895.00
2022-10-20T17:08:55.438Z,100896.00
2022-10-20T17:11:30.798Z,100901.00
2022-10-20T17:14:03.970Z,100905.00
2022-10-20T17:16:38.948Z,100905.00
2022-10-20T17:19:12.350Z,100919.00
2022-10-20T17:21:45.193Z,100926.00
2022-10-20T17:24:18.423Z,100931.00
2022-10-20T17:26:51.454Z,100938.00
2022-10-20T17:29:26.224Z,100942.00
2022-10-20T17:31:58.615Z,100935.00
2022-10-20T17:34:31.598Z,100947.00
2022-10-20T17:37:04.654Z,100945.00
2022-10-20T17:39:37.747Z,100961.00
2022-10-20T17:42:15.316Z,100977.00
2022-10-20T17:44:48.566Z,100973.00
2022-10-20T17:47:21.456Z,100966.00
2022-10-20T17:49:54.414Z,100960.00
2022-10-20T17:52:27.520Z,100964.00
2022-10-20T17:55:00.263Z,100964.00
2022-10-20T17:57:34.172Z,100964.00
2022-10-20T18:00:12.920Z,100955.00
2022-10-20T18:02:42.343Z,100957.00
2022-10-20T18:05:15.398Z,100963.00
2022-10-20T18:07:48.489Z,100972.00
2022-10-20T18:12:54.081Z,100977.00
2022-10-20T18:15:26.998Z,100989.00
2022-10-20T18:17:59.884Z,100993.00
2022-10-20T18:20:34.342Z,100989.00
2022-10-20T18:23:11.169Z,101006.00
2022-10-20T18:25:44.280Z,101002.00
2022-10-20T18:28:18.296Z,101011.00
2022-10-20T18:30:51.149Z,101010.00
2022-10-20T18:33:24.102Z,101013.00
2022-10-20T18:35:56.949Z,101019.00
2022-10-20T18:38:29.950Z,101022.00
2022-10-20T18:41:10.899Z,101023.00
2022-10-20T18:43:43.925Z,101026.00
2022-10-20T18:46:17.548Z,101022.00
2022-10-20T18:48:50.915Z,101026.00
2022-10-20T18:51:23.974Z,101035.00
2022-10-20T18:54:01.488Z,101032.00
2022-10-20T18:56:34.645Z,101034.00
2022-10-20T18:59:09.767Z,101020.00
2022-10-20T19:01:44.372Z,101028.00
2022-10-20T19:04:17.556Z,101047.00
2022-10-20T19:06:51.388Z,101038.00
2022-10-20T19:09:24.799Z,101036.00
2022-10-20T19:11:58.608Z,101057.00
2022-10-20T19:14:31.595Z,101052.00
2022-10-20T19:17:06.935Z,101054.00
2022-10-20T19:19:39.747Z,101056.00
2022-10-20T19:22:12.680Z,101063.00
2022-10-20T19:24:45.759Z,101053.00
2022-10-20T19:27:26.570Z,101067.00
2022-10-20T19:29:52.641Z,101072.00
2022-10-20T19:32:25.522Z,101086.00
2022-10-20T19:34:58.358Z,101087.00
2022-10-20T19:37:31.576Z,101091.00
2022-10-20T19:40:04.329Z,101103.00
2022-10-20T19:42:37.535Z,101108.00
2022-10-20T19:45:11.171Z,101108.00
2022-10-20T19:47:44.132Z,101105.00
2022-10-20T19:50:16.962Z,101108.00
2022-10-20T19:52:49.969Z,101118.00
2022-10-20T19:55:23.087Z,101115.00
2022-10-20T19:57:56.005Z,101114.00
2022-10-20T20:00:28.937Z,101121.00
2022-10-20T20:03:02.637Z,101128.00
2022-10-20T20:05:35.439Z,101126.00
2022-10-20T20:08:08.457Z,101136.00
2022-10-20T20:10:41.323Z,101126.00
2022-10-20T20:13:14.513Z,101140.00
2022-10-20T20:15:47.513Z,101131.00
2022-10-20T20:18:20.707Z,101130.00
2022-10-20T20:20:53.964Z,101135.00
2022-10-20T20:23:40.736Z,101140.00
2022-10-20T20:26:02.293Z,101139.00
2022-10-20T20:28:35.743Z,101137.00
2022-10-20T20:31:10.382Z,101135.00
2022-10-20T20:33:43.334Z,101135.00
2022-10-20T20:36:16.296Z,101138.00
2022-10-20T20:38:50.686Z,101131.00
2022-10-20T20:41:23.444Z,101137.00
2022-10-20T20:43:56.312Z,101137.00
2022-10-20T20:46:31.911Z,101137.00
2022-10-20T20:49:05.935Z,101152.00
2022-10-20T20:51:38.812Z,101145.00
2022-10-20T20:54:12.844Z,101149.00
2022-10-20T20:56:45.701Z,101155.00
2022-10-20T20:59:18.610Z,101160.00
2022-10-20T21:01:51.229Z,101146.00
2022-10-20T21:04:26.911Z,101155.00
2022-10-20T21:07:02.013Z,101164.00
2022-10-20T21:09:32.211Z,101170.00
2022-10-20T21:12:05.383Z,101169.00
2022-10-20T21:14:38.153Z,101178.00
2022-10-20T21:17:10.976Z,101179.00
2022-10-20T21:19:43.940Z,101181.00
2022-10-20T21:22:16.838Z,101186.00
2022-10-20T21:24:50.174Z,101191.00
2022-10-20T21:27:23.014Z,101189.00
2022-10-20T21:29:56.036Z,101193.00
2022-10-20T21:32:28.896Z,101182.00
2022-10-20T21:35:01.780Z,101194.00
2022-10-20T21:37:34.714Z,101191.00
2022-10-20T21:40:07.716Z,101191.00
2022-10-20T21:42:40.696Z,101198.00
2022-10-20T21:45:16.783Z,101204.00
2022-10-20T21:47:47.968Z,101199.00
2022-10-20T21:50:21.056Z,101211.00
2022-10-20T21:52:56.670Z,101206.00
2022-10-20T21:55:29.595Z,101208.00
2022-10-20T21:58:02.434Z,101206.00
2022-10-20T22:00:35.485Z,101208.00
2022-10-20T22:03:09.766Z,101211.00
2022-10-20T22:05:42.971Z,101215.00
2022-10-20T22:08:15.726Z,101221.00
2022-10-20T22:10:48.546Z,101210.00
2022-10-20T22:13:21.700Z,101222.00
2022-10-20T22:15:54.732Z,101225.00
2022-10-20T22:18:27.655Z,101216.00
2022-10-20T22:21:00.648Z,101220.00
2022-10-20T22:23:33.845Z,101219.00
2022-10-20T22:26:07.038Z,101221.00
2022-10-20T22:28:40.415Z,101216.00
2022-10-20T22:31:15.906Z,101229.00
2022-10-20T22:33:47.583Z,101231.00
2022-10-20T22:36:20.587Z,101233.00
2022-10-20T22:38:53.529Z,101233.00
2022-10-20T22:41:26.547Z,101229.00
2022-10-20T22:44:00.499Z,101227.00
2022-10-20T22:46:33.634Z,101225.00
2022-10-20T22:49:06.436Z,101233.00
2022-10-20T22:51:39.398Z,101232.00
2022-10-20T22:54:12.319Z,101239.00
2022-10-20T22:56:45.291Z,101237.00
2022-10-20T22:59:18.829Z,101241.00
2022-10-20T23:01:51.881Z,101229.00
2022-10-20T23:04:24.854Z,101234.00
2022-10-20T23:06:59.166Z,101236.00
2022-10-20T23:09:32.259Z,101242.00
2022-10-20T23:12:05.195Z,101240.00
2022-10-20T23:14:38.116Z,101236.00
2022-10-20T23:17:10.948Z,101235.00
2022-10-20T23:19:43.850Z,101237.00
2022-10-20T23:22:16.993Z,101234.00
2022-10-20T23:24:49.819Z,101240.00
2022-10-20T23:27:22.738Z,101230.00
2022-10-20T23:29:55.631Z,101232.00
2022-10-20T23:32:28.509Z,101227.00
2022-10-20T23:35:01.478Z,101239.00
2022-10-20T23:37:35.311Z,101238.00
2022-10-20T23:40:08.980Z,101247.00
2022-10-20T23:42:42.179Z,101240.00
2022-10-20T23:45:15.897Z,101243.00
2022-10-20T23:47:53.042Z,101249.00
2022-10-20T23:50:27.242Z,101238.00
2022-10-20T23:53:00.214Z,101245.00
2022-10-20T23:55:33.317Z,101245.00
2022-10-20T23:58:06.179Z,101252.00
